Ann Arbor, MI

3:31 AM EDT on April 25, 2015 (GMT -0400)
Ann Arbor Municipal | | Change Station
CLOSE
Current Station
Airport
Location: Ann Arbor,
Elevation: 837 ft
Nearby Weather Stations

Elev 837 ft 42.22 °N, 83.74 °W | Updated 38 minutes ago

Overcast
Overcast
41 °F
Feels Like 38 °F
N
5
Wind Variable Wind from SSE

Today
High -- | Low -- °F
--% Chance of Precip.
Yesterday
High -- | Low -- °F
Precip. -- in
6:39 AM 8:27 PM
Waxing Crescent, 43% visible
Pressure 30.00 in
Visibility 9.0 miles
Clouds Few 2400 ft
Scattered Clouds 2900 ft
Overcast 5000 ft
Windchill 38 °F
Dew Point 37 °F
Humidity 86%
Rainfall 0.05 in
Snow Depth Not available.
UV 0 out of 12
Pollen 6.60 out of 12
Air Quality Not available.
Flu Activity Regional
METAR KARB 250653Z 16004KT 9SM -RA FEW024 SCT029 OVC050 05/03 A2999 RMK AO2 SLP159 P0004 T00500028

More Conditions Fewer Conditions

Pressure 30.00 in
Visibility 9.0 miles
Clouds Few 2400 ft
Scattered Clouds 2900 ft
Overcast 5000 ft
Windchill 38 °F
Dew Point 37 °F
Humidity 86%
Rainfall 0.05 in
Snow Depth Not available.
UV 0 out of 12
Pollen 6.60 out of 12
Air Quality Not available.
Flu Activity Regional
METAR KARB 250653Z 16004KT 9SM -RA FEW024 SCT029 OVC050 05/03 A2999 RMK AO2 SLP159 P0004 T00500028

More Conditions Fewer Conditions

10-Day Weather Forecast

Almanac

Astronomy

Apr. 25, 2015 Rise Set
Actual Time
Civil Twilight
Nautical Twilight
Astronomical Twilight
Moon
Length of Visible Light
Length of Day
Tomorrow will be .
, % of the Moon is Illuminated

Today's Extremes

State Highs State Lows

Community

WunderPhotos

Upload Photos

1,816,624 photos uploaded!

WunderBlogs® & News

Nearby

Air Quality

  Air Quality AQ Index Pollutant
Not available.

Snow Depth

Station Depth Elevation

Earthquake Activity

City Distance Mag. Time & Date
Minimum magnitude displayed is 2.5.

Coastal Water Temperatures

Place Temperature

Stations

Nearby Weather Stations

Station Location Temp. Windchill Dew Point Humidity Wind Precip. Elev Updated Type